ENNM

Namsos Høknesøra Airport

Namsos, Norway
METAR ENNM 231950Z VRB02KT CAVOK 10/04 Q1029
Observed Flight Rules
May-23 @ 19:50 UTC (6 hours ago) Visual Flight Rules
Wind Visibility Clouds
Variable at 2 knots 10,000+ meters
  • Clear skies
Temperatures Readings
Current 10°C / 50°F
Dewpoint 4°C / 39°F
Humidity 67%
Altimeter 30.38" Hg
Pressure 1029 hPa
Elevation 2
METAR ENNM 231950Z VRB02KT CAVOK 10/04 Q1029
Observed Flight Rules
May-23 @ 19:50 UTC
(6 hours ago)
VFR
Wind Visibility
Variable at 2 knots 10,000+ meters
Clouds
  • Clear skies
Temperature Dewpoint
10°C / 50°F 4°C / 39°F
Humidity Altimeter Pressure
67% 30.38" Hg 1029 hPa